createdAt,value
2019-03-05T00:00:55.551Z,47.36
2019-03-05T00:01:34.546Z,47.36
2019-03-05T00:03:01.548Z,47.36
2019-03-05T00:03:34.542Z,46.14
2019-03-05T00:04:56.042Z,47.61
2019-03-05T00:05:38.489Z,47.12
2019-03-05T00:06:35.053Z,48.10
2019-03-05T00:10:09.992Z,51.51
2019-03-05T00:11:10.001Z,54.44
2019-03-05T00:12:10.492Z,51.51
2019-03-05T00:13:13.993Z,51.51
2019-03-05T00:14:10.492Z,49.80
2019-03-05T00:15:10.492Z,48.58
2019-03-05T00:16:10.995Z,48.10
2019-03-05T00:20:03.862Z,49.32
2019-03-05T00:20:42.853Z,47.61
2019-03-05T00:21:42.854Z,47.85
2019-03-05T00:22:45.405Z,52.00
2019-03-05T00:23:46.853Z,51.51
2019-03-05T00:24:43.355Z,48.34
2019-03-05T00:25:43.353Z,47.61
2019-03-05T00:26:43.853Z,47.85
2019-03-05T00:28:04.854Z,47.36
2019-03-05T00:28:43.932Z,47.36
2019-03-05T00:29:47.856Z,48.34
2019-03-05T00:30:44.353Z,49.56
2019-03-05T00:31:44.352Z,48.34
2019-03-05T00:32:44.352Z,55.91
2019-03-05T00:33:44.358Z,51.03
2019-03-05T00:34:44.854Z,49.56
2019-03-05T00:35:47.862Z,48.58
2019-03-05T00:36:44.855Z,52.73
2019-03-05T00:37:44.852Z,52.98
2019-03-05T00:38:45.355Z,55.42
2019-03-05T00:39:47.354Z,64.94
2019-03-05T00:40:49.351Z,56.15
2019-03-05T00:41:45.351Z,53.96
2019-03-05T00:42:45.859Z,52.98
2019-03-05T00:43:45.852Z,48.34
2019-03-05T00:44:45.851Z,47.36
2019-03-05T00:45:45.851Z,49.32
2019-03-05T00:46:50.351Z,48.58
2019-03-05T00:47:46.351Z,48.34
2019-03-05T00:48:46.350Z,47.85
2019-03-05T00:49:46.356Z,47.12
2019-03-05T00:50:46.851Z,47.85
2019-03-05T00:51:46.853Z,48.58
2019-03-05T00:52:50.350Z,47.85
2019-03-05T00:53:46.858Z,47.85
2019-03-05T00:54:47.350Z,85.94
2019-03-05T00:55:49.777Z,51.27
2019-03-05T00:56:47.350Z,50.05
2019-03-05T00:57:51.351Z,47.85
2019-03-05T00:58:47.853Z,46.88
2019-03-05T00:59:47.860Z,55.18
2019-03-05T01:00:47.857Z,48.10
2019-03-05T01:01:47.851Z,48.34
2019-03-05T01:02:48.356Z,86.43
2019-03-05T01:03:52.366Z,48.34
2019-03-05T01:04:48.350Z,53.22
2019-03-05T01:05:49.784Z,48.34
2019-03-05T01:06:48.848Z,48.10
2019-03-05T01:07:48.849Z,49.07
2019-03-05T01:08:48.858Z,52.00
2019-03-05T01:09:53.302Z,47.85
2019-03-05T01:10:49.349Z,47.36
2019-03-05T01:12:10.349Z,47.85
2019-03-05T01:12:49.349Z,47.85
2019-03-05T01:13:49.358Z,47.85
2019-03-05T01:14:53.359Z,58.11
2019-03-05T01:15:49.849Z,52.25
2019-03-05T01:16:49.849Z,50.78
2019-03-05T01:17:49.850Z,47.85
2019-03-05T01:18:49.848Z,48.34
2019-03-05T01:20:14.848Z,49.56
2019-03-05T01:20:50.348Z,47.85
2019-03-05T01:21:50.348Z,48.34
2019-03-05T01:22:50.349Z,46.88
2019-03-05T01:23:50.858Z,47.12
2019-03-05T01:24:54.859Z,49.07
2019-03-05T01:25:50.850Z,48.58
2019-03-05T01:26:50.849Z,47.61
2019-03-05T01:27:52.809Z,48.58
2019-03-05T01:28:51.349Z,47.85
2019-03-05T01:29:51.361Z,48.58
2019-03-05T01:30:54.853Z,48.83
2019-03-05T01:31:51.848Z,49.07
2019-03-05T01:32:51.851Z,47.36
2019-03-05T01:36:27.340Z,51.51
2019-03-05T01:37:23.335Z,49.80
2019-03-05T01:38:23.834Z,47.85
2019-03-05T01:39:23.838Z,47.36
2019-03-05T01:40:23.843Z,53.71
2019-03-05T01:41:23.835Z,53.47
2019-03-05T01:42:48.342Z,48.10
2019-03-05T01:43:24.335Z,48.83
2019-03-05T01:44:24.335Z,47.12
2019-03-05T01:45:24.333Z,47.12
2019-03-05T01:46:24.836Z,47.36
2019-03-05T01:47:28.335Z,46.63
2019-03-05T01:48:24.835Z,46.39
2019-03-05T01:49:26.769Z,47.85
2019-03-05T01:50:27.336Z,48.58
2019-03-05T01:51:25.406Z,46.39
2019-03-05T01:52:31.277Z,47.61
2019-03-05T01:53:46.335Z,46.14
2019-03-05T01:54:25.333Z,46.63
2019-03-05T01:55:46.843Z,46.63
2019-03-05T01:56:46.838Z,46.63
2019-03-05T01:57:50.833Z,47.36
2019-03-05T01:58:25.832Z,47.85
2019-03-05T01:59:26.337Z,47.61
2019-03-05T02:00:26.342Z,46.63
2019-03-05T02:01:27.316Z,50.29
2019-03-05T02:02:26.334Z,52.25
2019-03-05T02:03:29.833Z,47.12
2019-03-05T02:04:26.837Z,46.88
2019-03-05T02:05:26.835Z,45.90
2019-03-05T02:06:26.832Z,55.18
2019-03-05T02:07:50.333Z,46.14
2019-03-05T02:08:30.839Z,47.12
2019-03-05T02:11:59.329Z,46.39
2019-03-05T02:12:59.321Z,46.63
2019-03-05T02:14:02.322Z,47.12
2019-03-05T02:14:59.830Z,47.85
2019-03-05T02:15:59.830Z,48.10
2019-03-05T02:16:59.824Z,47.36
2019-03-05T02:17:59.821Z,47.12
2019-03-05T02:19:03.820Z,46.63
2019-03-05T02:20:00.405Z,46.63
2019-03-05T02:21:00.320Z,46.88
2019-03-05T02:22:00.323Z,47.36
2019-03-05T02:23:00.820Z,47.85
2019-03-05T02:24:00.820Z,53.71
2019-03-05T02:25:04.822Z,47.36
2019-03-05T02:26:00.824Z,48.34
2019-03-05T02:27:01.321Z,47.85
2019-03-05T02:28:01.324Z,46.88
2019-03-05T02:29:01.319Z,47.61
2019-03-05T02:30:01.332Z,46.88
2019-03-05T02:31:05.818Z,48.10
2019-03-05T02:32:01.829Z,47.61
2019-03-05T02:33:01.822Z,47.36
2019-03-05T02:34:01.820Z,49.32
2019-03-05T02:35:02.328Z,48.34
2019-03-05T02:36:27.326Z,55.66
2019-03-05T02:37:02.320Z,46.39
2019-03-05T02:38:05.517Z,47.36
2019-03-05T02:39:02.822Z,46.88
2019-03-05T02:40:02.823Z,47.85
2019-03-05T02:41:02.821Z,50.05
2019-03-05T02:42:06.822Z,49.07
2019-03-05T02:43:03.321Z,51.27
2019-03-05T02:44:03.320Z,49.56
2019-03-05T02:45:03.320Z,48.10
2019-03-05T02:46:03.329Z,48.83
2019-03-05T02:47:03.830Z,84.23
2019-03-05T02:48:07.820Z,51.27
2019-03-05T02:49:03.820Z,47.61
2019-03-05T02:50:24.819Z,50.05
2019-03-05T02:51:04.318Z,48.58
2019-03-05T02:52:04.327Z,48.10
2019-03-05T02:53:04.341Z,48.10
2019-03-05T02:54:07.823Z,47.61
2019-03-05T02:55:04.822Z,82.52
2019-03-05T02:56:04.827Z,49.32
2019-03-05T02:57:04.819Z,48.10
2019-03-05T02:58:04.819Z,47.61
2019-03-05T02:59:08.830Z,47.61
2019-03-05T03:00:28.318Z,47.12
2019-03-05T03:01:05.344Z,48.10
2019-03-05T03:02:05.325Z,47.85
2019-03-05T03:03:05.841Z,47.61
2019-03-05T03:04:05.822Z,56.40
2019-03-05T03:05:09.819Z,58.59
2019-03-05T03:06:05.834Z,48.34
2019-03-05T03:07:06.326Z,87.65
2019-03-05T03:08:06.318Z,50.05
2019-03-05T03:09:06.318Z,53.96
2019-03-05T03:10:06.323Z,49.07
2019-03-05T03:11:09.818Z,49.07
2019-03-05T03:12:06.835Z,48.34
2019-03-05T03:13:06.826Z,47.61
2019-03-05T03:14:06.820Z,50.05
2019-03-05T03:15:29.278Z,50.05
2019-03-05T03:16:11.323Z,52.00
2019-03-05T03:17:07.318Z,49.32
2019-03-05T03:18:07.330Z,50.54
2019-03-05T03:19:09.825Z,51.03
2019-03-05T03:20:07.817Z,54.20
2019-03-05T03:21:09.823Z,54.44
2019-03-05T03:22:11.317Z,51.03
2019-03-05T03:23:08.316Z,49.56
2019-03-05T03:24:08.318Z,54.44
2019-03-05T03:25:08.320Z,59.33
2019-03-05T03:26:08.326Z,62.99
2019-03-05T03:27:32.495Z,57.86
2019-03-05T03:28:10.817Z,83.01
2019-03-05T03:29:08.816Z,60.06
2019-03-05T03:32:43.819Z,54.44
2019-03-05T03:34:01.314Z,53.22
2019-03-05T03:34:40.805Z,47.36
2019-03-05T03:35:40.804Z,49.80
2019-03-05T03:36:40.811Z,48.34
2019-03-05T03:37:44.805Z,83.74
2019-03-05T03:38:41.304Z,52.98
2019-03-05T03:39:41.305Z,84.23
2019-03-05T03:40:41.303Z,87.89
2019-03-05T03:41:41.304Z,53.96
2019-03-05T03:42:41.802Z,56.40
2019-03-05T03:43:44.804Z,58.59
2019-03-05T03:44:41.802Z,53.47
2019-03-05T03:45:41.805Z,56.15
2019-03-05T03:46:42.309Z,52.00
2019-03-05T03:47:42.404Z,47.85
2019-03-05T03:48:46.300Z,49.56
2019-03-05T03:49:42.303Z,49.32
2019-03-05T03:50:42.801Z,50.05
2019-03-05T03:51:42.804Z,49.80
2019-03-05T03:52:42.809Z,49.80
2019-03-05T03:53:42.803Z,51.51
2019-03-05T03:54:47.310Z,50.29
2019-03-05T03:55:43.303Z,48.34
2019-03-05T03:56:43.304Z,52.98
2019-03-05T03:57:43.303Z,52.49
2019-03-05T03:58:43.807Z,89.84
2019-03-05T03:59:43.801Z,85.69
2019-03-05T04:00:47.307Z,47.85
2019-03-05T04:01:43.801Z,47.36
2019-03-05T04:02:44.301Z,47.85
2019-03-05T04:03:44.307Z,52.00
2019-03-05T04:04:44.338Z,69.34
2019-03-05T04:05:48.301Z,49.32
2019-03-05T04:06:44.805Z,51.51
2019-03-05T04:07:44.807Z,85.21
2019-03-05T04:08:44.813Z,85.45
2019-03-05T04:09:44.804Z,49.32
2019-03-05T04:10:45.302Z,48.83
2019-03-05T04:11:49.301Z,49.07
2019-03-05T04:12:45.312Z,59.57
2019-03-05T04:13:45.302Z,81.05
2019-03-05T04:14:45.802Z,49.80
2019-03-05T04:15:45.800Z,87.89
2019-03-05T04:16:49.302Z,61.52
2019-03-05T04:17:45.802Z,86.18
2019-03-05T04:18:46.305Z,49.07
2019-03-05T04:19:46.311Z,49.80
2019-03-05T04:20:46.302Z,51.03
2019-03-05T04:22:12.800Z,50.05
2019-03-05T04:22:46.800Z,66.16
2019-03-05T04:23:46.802Z,88.38
2019-03-05T04:24:46.802Z,87.89
2019-03-05T04:25:46.799Z,86.91
2019-03-05T04:27:11.800Z,82.52
2019-03-05T04:27:47.299Z,84.47
2019-03-05T04:28:47.310Z,60.79
2019-03-05T04:29:47.296Z,83.25
2019-03-05T04:33:19.039Z,79.59
2019-03-05T04:34:19.046Z,83.98
2019-03-05T04:35:40.541Z,48.83
2019-03-05T04:36:19.544Z,59.08
2019-03-05T04:37:43.540Z,76.17
2019-03-05T04:38:19.542Z,86.91
2019-03-05T04:39:20.040Z,51.27
2019-03-05T04:40:21.500Z,88.62
2019-03-05T04:41:20.038Z,48.34
2019-03-05T04:42:23.539Z,84.72
2019-03-05T04:43:20.039Z,48.58
2019-03-05T04:44:20.537Z,49.07
2019-03-05T04:45:20.541Z,50.78
2019-03-05T04:46:20.537Z,85.45
2019-03-05T04:47:20.538Z,49.80
2019-03-05T04:48:24.540Z,49.07
2019-03-05T04:51:52.401Z,88.38
2019-03-05T04:52:52.901Z,83.25
2019-03-05T04:53:56.403Z,50.05
2019-03-05T04:54:52.902Z,50.05
2019-03-05T04:55:52.900Z,86.43
2019-03-05T04:56:53.404Z,81.05
2019-03-05T04:57:53.409Z,82.76
2019-03-05T04:59:18.404Z,50.54
2019-03-05T04:59:53.401Z,50.05
2019-03-05T05:00:53.902Z,49.32
2019-03-05T05:02:14.901Z,48.83
2019-03-05T05:02:53.899Z,80.81
2019-03-05T05:03:53.905Z,85.21
2019-03-05T05:04:57.401Z,82.52
2019-03-05T05:05:54.400Z,83.50
2019-03-05T05:06:54.400Z,52.49
2019-03-05T05:07:54.405Z,70.31
2019-03-05T05:08:54.899Z,84.72
2019-03-05T05:09:58.404Z,57.37
2019-03-05T05:10:54.901Z,49.80
2019-03-05T05:11:54.900Z,49.32
2019-03-05T05:12:55.411Z,53.71
2019-03-05T05:13:55.408Z,53.96
2019-03-05T05:14:55.400Z,63.23
2019-03-05T05:15:59.398Z,86.18
2019-03-05T05:16:55.902Z,84.72
2019-03-05T05:18:16.903Z,85.45
2019-03-05T05:18:55.899Z,52.00
2019-03-05T05:20:16.899Z,85.69
2019-03-05T05:21:20.899Z,69.58
2019-03-05T05:22:17.399Z,62.99
2019-03-05T05:22:56.395Z,61.77
2019-03-05T05:23:56.400Z,61.04
2019-03-05T05:24:56.899Z,83.50
2019-03-05T05:25:57.833Z,85.45
2019-03-05T05:27:00.899Z,86.43
2019-03-05T05:27:56.902Z,84.72
2019-03-05T05:31:28.640Z,85.69
2019-03-05T05:32:32.140Z,86.43
2019-03-05T05:33:50.140Z,87.40
2019-03-05T05:34:29.142Z,65.43
2019-03-05T05:35:29.145Z,83.98
2019-03-05T05:36:29.639Z,66.41
2019-03-05T05:37:35.640Z,84.47
2019-03-05T05:38:29.643Z,66.89
2019-03-05T05:39:29.649Z,86.18
2019-03-05T05:40:52.097Z,84.47
2019-03-05T05:41:31.604Z,65.92
2019-03-05T05:42:35.643Z,66.41
2019-03-05T05:43:30.138Z,90.09
2019-03-05T05:44:32.641Z,88.87
2019-03-05T05:45:51.641Z,86.18
2019-03-05T05:46:52.596Z,90.09
2019-03-05T05:47:34.640Z,65.92
2019-03-05T05:48:30.641Z,66.41
2019-03-05T05:49:52.144Z,71.04
2019-03-05T05:50:31.138Z,84.96
2019-03-05T05:51:52.138Z,85.94
2019-03-05T05:52:56.139Z,83.25
2019-03-05T05:53:52.636Z,70.07
2019-03-05T05:54:33.645Z,65.92
2019-03-05T05:55:52.636Z,68.60
2019-03-05T05:56:31.637Z,70.31
2019-03-05T06:00:03.389Z,84.72
2019-03-05T06:01:05.884Z,81.05
2019-03-05T06:02:06.319Z,84.72
2019-03-05T06:03:03.885Z,77.88
2019-03-05T06:04:07.887Z,88.13
2019-03-05T06:05:04.388Z,65.92
2019-03-05T06:08:35.758Z,84.96
2019-03-05T06:09:39.258Z,89.11
2019-03-05T06:10:57.258Z,88.87
2019-03-05T06:11:37.192Z,86.67
2019-03-05T06:12:57.261Z,69.58
2019-03-05T06:13:36.257Z,87.16
2019-03-05T06:14:40.258Z,84.72
2019-03-05T06:15:36.765Z,87.89
2019-03-05T06:16:57.764Z,84.96
2019-03-05T06:17:36.759Z,84.72
2019-03-05T06:18:37.258Z,86.18
2019-03-05T06:19:37.259Z,84.47
2019-03-05T06:20:42.718Z,88.87
2019-03-05T06:21:37.260Z,85.69
2019-03-05T06:22:37.756Z,92.04
2019-03-05T06:23:37.756Z,88.38
2019-03-05T06:24:37.763Z,88.13
2019-03-05T06:25:37.758Z,55.91
2019-03-05T06:26:41.257Z,88.87
2019-03-05T06:30:09.631Z,84.47
2019-03-05T06:31:09.622Z,90.58
2019-03-05T06:32:14.123Z,64.94
2019-03-05T06:33:31.126Z,80.57
2019-03-05T06:34:10.118Z,85.45
2019-03-05T06:35:10.118Z,81.54
2019-03-05T06:36:31.628Z,87.16
2019-03-05T06:37:35.629Z,87.16
2019-03-05T06:38:09.966Z,83.98
2019-03-05T06:39:31.621Z,88.87
2019-03-05T06:40:10.628Z,84.47
2019-03-05T06:41:11.123Z,85.94
2019-03-05T06:42:11.119Z,85.94
2019-03-05T06:43:15.121Z,85.94
2019-03-05T06:44:11.122Z,87.16
2019-03-05T06:45:10.710Z,86.67
2019-03-05T06:46:11.630Z,88.62
2019-03-05T06:47:32.628Z,86.18
2019-03-05T06:48:11.621Z,66.89
2019-03-05T06:49:15.121Z,84.47
2019-03-05T06:50:12.129Z,83.25
2019-03-05T06:51:12.124Z,85.21
2019-03-05T06:52:12.122Z,58.35
2019-03-05T06:53:12.621Z,87.40
2019-03-05T06:54:16.120Z,85.69
2019-03-05T06:55:12.618Z,86.18
2019-03-05T06:56:12.624Z,88.87
2019-03-05T06:57:13.120Z,88.87
2019-03-05T06:58:13.120Z,87.40
2019-03-05T06:59:13.122Z,64.70
2019-03-05T07:00:17.120Z,85.45
2019-03-05T07:03:44.860Z,86.43
2019-03-05T07:04:44.860Z,83.50
2019-03-05T07:05:48.869Z,67.14
2019-03-05T07:06:45.361Z,84.96
2019-03-05T07:07:45.366Z,85.69
2019-03-05T07:09:06.367Z,86.43
2019-03-05T07:09:45.860Z,82.52
2019-03-05T07:11:10.360Z,84.96
2019-03-05T07:11:45.872Z,84.23
2019-03-05T07:12:45.865Z,83.25
2019-03-05T07:13:48.359Z,58.11
2019-03-05T07:14:46.359Z,83.25
2019-03-05T07:15:47.825Z,82.52
2019-03-05T07:16:49.859Z,58.11
2019-03-05T07:17:46.359Z,85.21
2019-03-05T07:19:07.864Z,86.91
2019-03-05T07:19:57.551Z,83.01
2019-03-05T07:21:07.859Z,61.28
2019-03-05T07:21:46.865Z,59.81
2019-03-05T07:22:50.864Z,85.21
2019-03-05T07:23:47.360Z,85.45
2019-03-05T07:24:47.359Z,81.30
2019-03-05T07:25:47.359Z,87.65
2019-03-05T07:26:47.857Z,82.28
2019-03-05T07:27:47.863Z,55.66
2019-03-05T07:28:51.864Z,86.18
2019-03-05T07:29:47.859Z,86.43
2019-03-05T07:31:09.362Z,89.84
2019-03-05T07:31:49.793Z,85.45
2019-03-05T07:32:48.363Z,74.46
2019-03-05T07:33:48.358Z,85.45
2019-03-05T07:34:51.857Z,84.96
2019-03-05T07:35:48.858Z,58.84
2019-03-05T07:36:48.858Z,83.98
2019-03-05T07:37:48.859Z,83.98
2019-03-05T07:38:49.359Z,84.23
2019-03-05T07:39:53.359Z,83.98
2019-03-05T07:40:49.358Z,86.18
2019-03-05T07:41:49.362Z,63.23
2019-03-05T07:42:49.859Z,87.16
2019-03-05T07:43:49.857Z,86.43
2019-03-05T07:44:49.857Z,83.50
2019-03-05T07:45:54.359Z,85.45
2019-03-05T07:46:50.361Z,85.69
2019-03-05T07:47:50.373Z,85.94
2019-03-05T07:48:50.358Z,83.01
2019-03-05T07:49:50.358Z,89.84
2019-03-05T07:50:50.857Z,85.21
2019-03-05T07:52:14.873Z,83.74
2019-03-05T07:52:50.855Z,57.37
2019-03-05T07:53:50.857Z,67.38
2019-03-05T07:54:52.442Z,90.33
2019-03-05T07:55:51.357Z,86.43
2019-03-05T07:56:56.291Z,85.21
2019-03-05T07:57:53.362Z,57.37
2019-03-05T07:59:12.857Z,80.81
2019-03-05T07:59:51.857Z,68.12
2019-03-05T08:00:51.859Z,84.72
2019-03-05T08:01:51.860Z,87.89
2019-03-05T08:05:27.672Z,81.79
2019-03-05T08:06:27.675Z,84.47
2019-03-05T08:07:28.172Z,71.53
2019-03-05T08:08:32.186Z,86.18
2019-03-05T08:09:28.174Z,86.18
2019-03-05T08:10:28.171Z,86.43
2019-03-05T08:14:03.413Z,84.47
2019-03-05T08:15:00.436Z,86.91
2019-03-05T08:16:02.753Z,58.59
2019-03-05T08:17:00.912Z,86.18
2019-03-05T08:18:00.930Z,88.87
2019-03-05T08:19:04.910Z,85.69
2019-03-05T08:20:00.910Z,86.91
2019-03-05T08:21:01.436Z,87.40
2019-03-05T08:22:01.409Z,86.43
2019-03-05T08:23:01.410Z,87.65
2019-03-05T08:24:01.419Z,80.81
2019-03-05T08:25:05.935Z,83.01
2019-03-05T08:26:01.910Z,82.28
2019-03-05T08:27:01.911Z,90.33
2019-03-05T08:28:01.913Z,82.03
2019-03-05T08:29:03.073Z,59.08
2019-03-05T08:30:26.912Z,82.52
2019-03-05T08:31:04.409Z,52.73
2019-03-05T08:32:02.424Z,81.79
2019-03-05T08:33:02.913Z,86.18
2019-03-05T08:34:02.909Z,86.18
2019-03-05T08:35:02.916Z,83.01
2019-03-05T08:36:06.908Z,82.52
2019-03-05T08:37:02.499Z,88.13
2019-03-05T08:38:03.418Z,55.66
2019-03-05T08:39:03.407Z,83.74
2019-03-05T08:40:03.409Z,82.52
2019-03-05T08:41:03.913Z,83.98
2019-03-05T08:42:09.376Z,55.66
2019-03-05T08:43:03.908Z,83.25
2019-03-05T08:44:03.915Z,84.96
2019-03-05T08:45:29.439Z,83.98
2019-03-05T08:46:03.629Z,59.08
2019-03-05T08:47:04.409Z,88.38
2019-03-05T08:50:39.185Z,62.74
2019-03-05T08:51:39.184Z,88.13
2019-03-05T08:52:40.616Z,83.74
2019-03-05T08:53:49.606Z,85.69
2019-03-05T08:54:39.682Z,84.47
2019-03-05T08:55:39.688Z,89.60
2019-03-05T08:56:39.681Z,55.18
2019-03-05T08:58:01.185Z,87.16
2019-03-05T08:58:40.185Z,55.18
2019-03-05T09:00:04.181Z,55.18
2019-03-05T09:00:40.182Z,83.25
2019-03-05T09:01:40.681Z,52.73
2019-03-05T09:05:16.049Z,57.62
2019-03-05T09:06:33.544Z,90.33
2019-03-05T09:07:12.545Z,63.96
2019-03-05T09:08:13.052Z,85.94
2019-03-05T09:09:13.048Z,59.33
2019-03-05T09:10:17.045Z,82.52
2019-03-05T09:11:13.057Z,85.21
2019-03-05T09:12:13.544Z,83.74
2019-03-05T09:13:13.544Z,52.49
2019-03-05T09:14:13.544Z,84.96
2019-03-05T09:15:13.545Z,85.94
2019-03-05T09:16:17.043Z,83.98
2019-03-05T09:17:35.039Z,84.23
2019-03-05T09:18:14.047Z,87.65
2019-03-05T09:19:14.045Z,83.25
2019-03-05T09:20:35.544Z,59.57
2019-03-05T09:23:49.730Z,91.31
2019-03-05T09:24:49.732Z,84.96
2019-03-05T09:25:50.230Z,87.40
2019-03-05T09:26:53.732Z,83.50
2019-03-05T09:27:50.228Z,86.91
2019-03-05T09:28:50.234Z,90.58
2019-03-05T09:29:50.730Z,53.96
2019-03-05T09:30:50.730Z,87.16
2019-03-05T09:31:50.730Z,74.22
2019-03-05T09:32:54.729Z,84.96
2019-03-05T09:33:51.231Z,86.18
2019-03-05T09:34:51.229Z,56.15
2019-03-05T09:35:51.247Z,88.87
2019-03-05T09:36:51.503Z,68.85
2019-03-05T09:37:52.687Z,87.40
2019-03-05T09:38:54.731Z,87.16
2019-03-05T09:39:51.737Z,84.47
2019-03-05T09:40:51.729Z,88.87
2019-03-05T09:41:51.730Z,88.13
2019-03-05T09:42:52.229Z,84.72
2019-03-05T09:43:56.229Z,61.28
2019-03-05T09:44:52.229Z,83.01
2019-03-05T09:45:52.229Z,57.13
2019-03-05T09:46:52.729Z,54.93
2019-03-05T09:47:52.728Z,54.44
2019-03-05T09:48:52.731Z,85.69
2019-03-05T09:49:59.163Z,79.35
2019-03-05T09:50:53.230Z,53.96
2019-03-05T09:51:53.230Z,84.96
2019-03-05T09:52:55.163Z,85.21
2019-03-05T09:53:53.228Z,84.72
2019-03-05T09:57:28.662Z,84.96
2019-03-05T09:58:28.654Z,69.58
2019-03-05T09:59:29.154Z,91.55
2019-03-05T10:00:38.651Z,82.76
2019-03-05T10:01:29.162Z,85.69
2019-03-05T10:02:29.154Z,87.16
2019-03-05T10:03:32.090Z,84.23
2019-03-05T10:07:01.017Z,87.16
2019-03-05T10:08:01.015Z,83.50
2019-03-05T10:09:01.516Z,87.40
2019-03-05T10:10:22.515Z,85.45
2019-03-05T10:11:05.515Z,86.43
2019-03-05T10:12:01.516Z,87.16
2019-03-05T10:13:04.195Z,87.89
2019-03-05T10:14:23.015Z,66.89
2019-03-05T10:15:02.025Z,86.18
2019-03-05T10:16:02.014Z,87.16
2019-03-05T10:17:25.515Z,83.01
2019-03-05T10:18:12.206Z,82.52
2019-03-05T10:19:02.514Z,63.23
2019-03-05T10:20:02.511Z,89.84
2019-03-05T10:21:03.970Z,87.65
2019-03-05T10:22:13.014Z,86.18
2019-03-05T10:23:03.019Z,84.96
2019-03-05T10:24:10.466Z,56.64
2019-03-05T10:25:06.166Z,88.13
2019-03-05T10:26:03.518Z,86.18
2019-03-05T10:27:03.515Z,87.89
2019-03-05T10:28:06.518Z,86.91
2019-03-05T10:29:03.514Z,85.45
2019-03-05T10:30:04.014Z,87.89
2019-03-05T10:31:04.018Z,86.43
2019-03-05T10:32:04.015Z,86.43
2019-03-05T10:33:29.021Z,85.21
2019-03-05T10:34:04.519Z,83.98
2019-03-05T10:35:04.521Z,54.69
2019-03-05T10:36:25.525Z,89.11
2019-03-05T10:37:12.364Z,83.25
2019-03-05T10:38:30.986Z,83.25
2019-03-05T10:39:05.014Z,61.77
2019-03-05T10:40:05.026Z,84.47
2019-03-05T10:41:05.055Z,53.96
2019-03-05T10:42:26.012Z,84.47
2019-03-05T10:43:08.912Z,56.88
2019-03-05T10:44:32.012Z,86.43
2019-03-05T10:45:05.516Z,84.47
2019-03-05T10:46:05.521Z,84.47
2019-03-05T10:47:06.012Z,82.28
2019-03-05T10:48:06.012Z,87.16
2019-03-05T10:49:06.012Z,86.43
2019-03-05T10:50:15.297Z,83.98
2019-03-05T10:51:27.514Z,86.18
2019-03-05T10:52:06.511Z,50.78
2019-03-05T10:53:06.512Z,87.16
2019-03-05T10:54:06.514Z,83.50
2019-03-05T10:55:07.024Z,86.18
2019-03-05T10:56:11.021Z,50.54
2019-03-05T10:57:07.012Z,84.96
2019-03-05T10:58:07.011Z,85.94
2019-03-05T10:59:34.945Z,81.05
2019-03-05T11:00:07.510Z,50.29
2019-03-05T11:01:07.511Z,82.52
2019-03-05T11:02:13.014Z,83.98
2019-03-05T11:03:07.511Z,86.91
2019-03-05T11:04:29.011Z,85.94
2019-03-05T11:05:29.011Z,58.84
2019-03-05T11:06:08.019Z,88.13
2019-03-05T11:07:12.010Z,82.03
2019-03-05T11:08:29.510Z,83.74
2019-03-05T11:09:08.513Z,85.94
2019-03-05T11:10:08.505Z,67.87
2019-03-05T11:11:13.449Z,85.94
2019-03-05T11:12:32.511Z,81.54
2019-03-05T11:15:40.381Z,83.25
2019-03-05T11:16:40.395Z,52.49
2019-03-05T11:17:43.880Z,52.25
2019-03-05T11:19:01.884Z,84.96
2019-03-05T11:19:40.882Z,55.42
2019-03-05T11:20:42.879Z,83.01
2019-03-05T11:22:03.314Z,89.36
2019-03-05T11:22:44.887Z,86.91
2019-03-05T11:23:41.382Z,88.13
2019-03-05T11:24:41.380Z,66.89
2019-03-05T11:26:02.882Z,85.45
2019-03-05T11:26:47.884Z,83.25
2019-03-05T11:27:41.881Z,83.25
2019-03-05T11:28:45.881Z,58.59
2019-03-05T11:29:48.378Z,52.25
2019-03-05T11:30:44.387Z,85.94
2019-03-05T11:31:41.727Z,86.18
2019-03-05T11:32:42.378Z,87.89
2019-03-05T11:33:42.441Z,51.03
2019-03-05T11:34:45.882Z,86.91
2019-03-05T11:35:42.879Z,54.93
2019-03-05T11:36:42.883Z,87.16
2019-03-05T11:37:42.880Z,85.21
2019-03-05T11:38:42.879Z,87.40
2019-03-05T11:39:49.379Z,83.74
2019-03-05T11:40:43.386Z,81.54
2019-03-05T11:41:43.401Z,85.45
2019-03-05T11:42:43.380Z,87.65
2019-03-05T11:43:43.879Z,83.98
2019-03-05T11:44:55.760Z,87.40
2019-03-05T11:45:47.379Z,83.98
2019-03-05T11:46:43.882Z,63.23
2019-03-05T11:47:45.318Z,83.50
2019-03-05T11:49:05.379Z,83.50
2019-03-05T11:49:44.379Z,81.30
2019-03-05T11:50:48.383Z,58.11
2019-03-05T11:52:05.879Z,85.45
2019-03-05T11:53:08.313Z,58.11
2019-03-05T11:53:50.881Z,85.69
2019-03-05T11:54:44.879Z,83.74
2019-03-05T11:56:15.903Z,86.18
2019-03-05T11:56:45.384Z,49.80
2019-03-05T11:57:46.335Z,83.98
2019-03-05T11:58:45.379Z,85.69
2019-03-05T11:59:44.719Z,84.47
2019-03-05T12:01:06.388Z,81.54
2019-03-05T12:01:49.434Z,81.30
2019-03-05T12:02:45.886Z,86.67
2019-03-05T12:04:06.897Z,85.94
2019-03-05T12:04:45.888Z,73.97
2019-03-05T12:05:45.879Z,82.03
2019-03-05T12:06:49.393Z,81.79
2019-03-05T12:07:46.388Z,85.69
2019-03-05T12:08:46.381Z,82.52
2019-03-05T12:09:46.379Z,84.23
2019-03-05T12:10:46.379Z,83.74
2019-03-05T12:11:50.880Z,86.43
2019-03-05T12:12:46.882Z,85.45
2019-03-05T12:13:46.878Z,85.45
2019-03-05T12:14:46.880Z,87.65
2019-03-05T12:15:47.378Z,82.76
2019-03-05T12:16:47.374Z,84.47
2019-03-05T12:17:50.878Z,84.47
2019-03-05T12:18:47.386Z,86.91
2019-03-05T12:19:47.879Z,84.47
2019-03-05T12:20:47.878Z,66.65
2019-03-05T12:21:47.879Z,82.28
2019-03-05T12:22:51.880Z,82.03
2019-03-05T12:23:48.478Z,87.40
2019-03-05T12:24:48.378Z,84.96
2019-03-05T12:25:48.378Z,86.18
2019-03-05T12:26:48.380Z,89.36
2019-03-05T12:28:13.383Z,85.45
2019-03-05T12:28:48.880Z,56.88
2019-03-05T12:29:48.266Z,85.94
2019-03-05T12:30:48.878Z,84.47
2019-03-05T12:32:03.378Z,84.72
2019-03-05T12:32:51.382Z,87.16
2019-03-05T12:34:13.878Z,85.94
2019-03-05T12:34:49.378Z,73.49
2019-03-05T12:35:51.879Z,86.43
2019-03-05T12:36:49.878Z,84.96
2019-03-05T12:37:49.878Z,84.96
2019-03-05T12:42:57.065Z,85.21
2019-03-05T12:44:00.568Z,84.72
2019-03-05T12:44:57.567Z,83.98
2019-03-05T12:45:57.572Z,79.59
2019-03-05T12:46:57.564Z,81.79
2019-03-05T12:47:57.575Z,83.74
2019-03-05T12:49:01.567Z,81.79
2019-03-05T12:50:33.073Z,89.60
2019-03-05T12:50:58.069Z,80.32
2019-03-05T12:51:58.064Z,82.52
2019-03-05T12:52:58.564Z,83.01
2019-03-05T12:53:59.537Z,83.50
2019-03-05T12:55:02.565Z,60.06
2019-03-05T12:55:58.567Z,84.96
2019-03-05T12:56:59.066Z,84.23
2019-03-05T13:00:34.449Z,76.90
2019-03-05T13:01:31.416Z,82.28
2019-03-05T13:05:02.151Z,87.89
2019-03-05T13:06:05.699Z,83.01
2019-03-05T13:07:23.169Z,80.81
2019-03-05T13:08:02.673Z,86.91
2019-03-05T13:09:23.673Z,62.26
2019-03-05T13:10:02.749Z,52.49
2019-03-05T13:11:27.179Z,52.00
2019-03-05T13:12:05.174Z,83.50
2019-03-05T13:13:03.173Z,87.65
2019-03-05T13:14:07.239Z,83.50
2019-03-05T13:15:03.178Z,88.38
2019-03-05T13:16:28.677Z,87.89
2019-03-05T13:17:03.676Z,55.91
2019-03-05T13:18:03.678Z,85.45
2019-03-05T13:19:05.400Z,87.65
2019-03-05T13:20:04.175Z,83.50
2019-03-05T13:21:07.777Z,86.67
2019-03-05T13:22:32.110Z,81.05
2019-03-05T13:23:08.738Z,84.47
2019-03-05T13:24:04.175Z,86.43
2019-03-05T13:25:28.736Z,83.01
2019-03-05T13:26:07.689Z,60.79
2019-03-05T13:29:38.372Z,81.30
2019-03-05T13:30:40.295Z,83.50
2019-03-05T13:32:00.526Z,84.23
2019-03-05T13:32:43.030Z,79.35
2019-03-05T13:33:42.008Z,61.28
2019-03-05T13:34:39.536Z,83.25
2019-03-05T13:35:42.026Z,87.16
2019-03-05T13:37:01.117Z,90.33
2019-03-05T13:37:44.026Z,83.50
2019-03-05T13:38:41.818Z,50.54
2019-03-05T13:39:39.633Z,83.74
2019-03-05T13:40:40.908Z,88.87
2019-03-05T13:41:40.528Z,85.94
2019-03-05T13:43:05.526Z,87.16
2019-03-05T13:43:41.036Z,52.00
2019-03-05T13:44:42.460Z,84.47
2019-03-05T13:45:43.926Z,84.47
2019-03-05T13:46:41.027Z,60.30
2019-03-05T13:47:42.814Z,86.18
2019-03-05T13:48:45.027Z,87.40
2019-03-05T13:49:41.527Z,87.16
2019-03-05T13:50:41.002Z,85.21
2019-03-05T13:54:17.759Z,84.23
2019-03-05T13:55:14.260Z,86.18
2019-03-05T13:56:37.788Z,60.06
2019-03-05T13:57:15.274Z,84.72
2019-03-05T13:58:14.251Z,85.94
2019-03-05T13:59:13.853Z,82.76